Time;durP1;ratioP1;P1;durP2;ratioP2;P2;SDS_P1;SDS_P2;PMS_P1;PMS_P2;Temp;Humidity;BMP_temperature;BMP_pressure;BME280_temperature;BME280_humidity;BME280_pressure;Samples;Min_cycle;Max_cycle;Signal;HPM_P1;HPM_P2
2023/09/02 00:02:15;;;;;;;29.05;18.75;;;;;;;14.97;100.00;101520.06;5053835;28;20151;-75
2023/09/02 00:04:41;;;;;;;30.17;19.55;;;;;;;14.97;100.00;101518.22;5058805;28;20033;-76
2023/09/02 00:07:06;;;;;;;28.15;18.60;;;;;;;14.99;100.00;101509.84;5059144;28;20045;-76
2023/09/02 00:09:32;;;;;;;29.10;18.77;;;;;;;14.97;100.00;101509.22;5044787;28;20088;-75
2023/09/02 00:11:57;;;;;;;28.95;18.55;;;;;;;15.00;100.00;101520.47;5057402;28;20028;-75
2023/09/02 00:14:22;;;;;;;28.05;18.30;;;;;;;14.98;100.00;101517.16;5047566;28;20043;-75
2023/09/02 00:16:48;;;;;;;28.85;18.48;;;;;;;15.00;100.00;101523.19;5043316;28;20025;-76
2023/09/02 00:19:13;;;;;;;27.50;18.17;;;;;;;14.99;100.00;101518.84;5047508;28;20032;-75
2023/09/02 00:21:39;;;;;;;29.15;18.20;;;;;;;15.04;100.00;101522.78;5058767;28;20483;-75
2023/09/02 00:24:05;;;;;;;26.25;18.05;;;;;;;15.03;100.00;101524.66;5053751;28;20760;-75
2023/09/02 00:26:31;;;;;;;31.58;18.65;;;;;;;15.06;100.00;101524.25;5064318;28;20088;-75
2023/09/02 00:28:57;;;;;;;28.35;18.30;;;;;;;15.08;100.00;101526.75;5060015;28;20341;-76
2023/09/02 00:31:22;;;;;;;27.60;17.83;;;;;;;15.10;100.00;101532.78;5098561;22;20052;-76
2023/09/02 00:33:47;;;;;;;29.80;18.63;;;;;;;15.11;100.00;101526.31;5096813;28;20023;-75
2023/09/02 00:36:14;;;;;;;28.02;17.48;;;;;;;15.13;100.00;101518.81;5101635;28;20464;-76
2023/09/02 00:38:39;;;;;;;30.70;18.73;;;;;;;15.14;100.00;101526.72;5094415;28;20051;-77
2023/09/02 00:41:07;;;;;;;30.67;18.48;;;;;;;15.17;100.00;101517.34;5072733;28;20440;-75
2023/09/02 00:43:32;;;;;;;28.95;18.58;;;;;;;15.19;100.00;101519.84;5059392;28;20036;-76
2023/09/02 00:45:58;;;;;;;30.25;18.85;;;;;;;15.18;100.00;101516.28;5061289;28;20029;-75
2023/09/02 00:48:23;;;;;;;30.67;18.63;;;;;;;15.20;100.00;101514.19;5092322;28;20456;-76
2023/09/02 00:50:55;;;;;;;30.30;18.63;;;;;;;15.19;100.00;101517.13;5092038;28;20028;-76
2023/09/02 00:53:20;;;;;;;30.08;17.85;;;;;;;15.17;100.00;101514.63;5051567;28;20041;-75
2023/09/02 00:55:46;;;;;;;31.70;18.75;;;;;;;15.17;100.00;101498.38;5078656;28;20028;-76
2023/09/02 00:58:12;;;;;;;31.17;18.73;;;;;;;15.15;100.00;101500.47;5051911;28;20029;-75
2023/09/02 01:00:37;;;;;;;32.08;19.20;;;;;;;15.11;100.00;101497.31;5072209;28;20616;-76
2023/09/02 01:03:03;;;;;;;31.00;18.88;;;;;;;15.04;100.00;101501.09;5067930;28;20468;-76
2023/09/02 01:05:29;;;;;;;34.67;19.15;;;;;;;14.95;100.00;101495.91;5071278;28;20040;-76
2023/09/02 01:07:54;;;;;;;33.22;18.20;;;;;;;14.85;100.00;101504.44;5072195;28;20024;-76
2023/09/02 01:10:20;;;;;;;35.50;19.17;;;;;;;14.78;100.00;101508.22;5090457;28;20447;-76
2023/09/02 01:12:45;;;;;;;35.95;19.05;;;;;;;14.68;100.00;101505.91;5070651;28;20138;-76
2023/09/02 01:15:11;;;;;;;38.00;20.02;;;;;;;14.59;100.00;101509.81;5088426;28;20031;-76
2023/09/02 01:17:36;;;;;;;40.15;19.00;;;;;;;14.54;100.00;101507.75;5088951;28;20032;-76
2023/09/02 01:20:03;;;;;;;39.17;18.98;;;;;;;14.55;100.00;101509.41;5071754;28;20020;-76
2023/09/02 01:22:40;;;;;;;47.13;20.58;;;;;;;14.54;100.00;101505.03;5052794;28;20032;-76
2023/09/02 01:25:29;;;;;;;39.15;19.00;;;;;;;14.52;100.00;101501.69;5088025;28;20036;-75
2023/09/02 01:27:57;;;;;;;41.88;19.85;;;;;;;14.52;100.00;101501.69;5048282;28;20515;-76
2023/09/02 01:30:31;;;;;;;39.90;19.88;;;;;;;14.50;100.00;101506.47;5075842;28;20044;-76
2023/09/02 01:32:56;;;;;;;37.03;18.58;;;;;;;14.38;100.00;101509.81;5055671;28;20078;-75
2023/09/02 01:35:27;;;;;;;36.55;18.70;;;;;;;14.31;100.00;101508.97;5050913;28;20024;-76
2023/09/02 01:37:57;;;;;;;41.67;19.33;;;;;;;14.24;100.00;101510.84;5081083;28;20024;-76
2023/09/02 01:40:26;;;;;;;36.28;18.23;;;;;;;14.16;100.00;101502.88;5089890;28;20072;-76
2023/09/02 01:42:53;;;;;;;39.22;18.25;;;;;;;14.13;100.00;101514.13;5052609;28;20036;-76
2023/09/02 01:45:19;;;;;;;45.30;19.35;;;;;;;14.11;100.00;101517.06;5086965;28;20020;-76
2023/09/02 01:47:45;;;;;;;44.70;20.60;;;;;;;14.08;100.00;101512.88;5088109;28;20084;-76
2023/09/02 01:50:11;;;;;;;46.97;20.30;;;;;;;13.99;100.00;101514.09;5060611;28;20032;-76
2023/09/02 01:52:37;;;;;;;38.22;18.30;;;;;;;13.97;100.00;101518.88;5046088;28;20036;-76
2023/09/02 01:55:03;;;;;;;39.58;18.70;;;;;;;14.00;100.00;101523.88;5053033;28;20057;-76
2023/09/02 01:57:28;;;;;;;42.30;19.40;;;;;;;13.92;100.00;101516.78;5066853;28;20122;-76
2023/09/02 01:59:54;;;;;;;46.47;19.67;;;;;;;13.86;100.00;101519.47;5088225;28;20031;-76
2023/09/02 02:02:19;;;;;;;45.42;18.80;;;;;;;13.79;100.00;101522.97;5087130;28;20024;-76
2023/09/02 02:04:46;;;;;;;42.67;18.48;;;;;;;13.71;100.00;101523.16;5062822;28;20346;-76
2023/09/02 02:07:13;;;;;;;47.00;19.38;;;;;;;13.65;100.00;101526.66;5047294;28;20119;-76
2023/09/02 02:09:43;;;;;;;47.22;18.60;;;;;;;13.66;100.00;101532.91;5069672;28;20134;-76
2023/09/02 02:12:08;;;;;;;50.13;19.38;;;;;;;13.67;100.00;101532.72;5086636;28;20111;-76
2023/09/02 02:14:34;;;;;;;47.28;19.70;;;;;;;13.70;100.00;101529.59;5070467;28;20051;-76
2023/09/02 02:17:00;;;;;;;50.60;19.05;;;;;;;13.69;100.00;101533.34;5088280;28;20396;-76
2023/09/02 02:19:26;;;;;;;46.42;19.00;;;;;;;13.71;100.00;101531.28;5087357;28;20036;-76
2023/09/02 02:21:51;;;;;;;45.95;19.25;;;;;;;13.71;100.00;101525.88;5054681;28;20020;-76
2023/09/02 02:24:16;;;;;;;48.05;19.13;;;;;;;13.68;100.00;101528.97;5075533;28;20029;-76
2023/09/02 02:26:42;;;;;;;54.40;19.60;;;;;;;13.70;100.00;101526.91;5091438;28;20039;-76
2023/09/02 02:29:07;;;;;;;51.47;19.75;;;;;;;13.71;100.00;101531.28;5092386;28;20417;-75
2023/09/02 02:31:34;;;;;;;54.58;20.75;;;;;;;13.72;100.00;101535.66;5092343;28;20108;-76
2023/09/02 02:33:59;;;;;;;53.28;19.67;;;;;;;13.75;100.00;101542.53;5085910;28;20040;-76
2023/09/02 02:36:25;;;;;;;48.72;18.38;;;;;;;13.74;100.00;101549.81;5093385;28;20081;-75
2023/09/02 02:38:50;;;;;;;50.97;18.88;;;;;;;13.77;100.00;101546.69;5092991;28;20695;-75
2023/09/02 02:41:16;;;;;;;52.72;19.58;;;;;;;13.79;100.00;101541.91;5092976;28;20024;-76
2023/09/02 02:43:41;;;;;;;51.13;20.23;;;;;;;13.79;100.00;101543.81;5092122;28;20423;-76
2023/09/02 02:46:07;;;;;;;47.80;19.17;;;;;;;13.75;100.00;101540.66;5090651;28;20567;-76
2023/09/02 02:48:32;;;;;;;52.05;19.63;;;;;;;13.77;100.00;101543.97;5092527;28;20026;-77
2023/09/02 02:50:58;;;;;;;53.22;19.05;;;;;;;13.75;100.00;101546.09;5094348;28;20059;-77
2023/09/02 02:53:23;;;;;;;56.65;19.75;;;;;;;13.77;100.00;101548.56;5092004;28;20024;-77
2023/09/02 02:55:50;;;;;;;56.28;20.42;;;;;;;13.76;100.00;101553.16;5093763;28;20101;-76
2023/09/02 02:58:16;;;;;;;58.75;20.63;;;;;;;13.76;100.00;101542.34;5088511;28;20020;-76
2023/09/02 03:00:43;;;;;;;54.58;20.25;;;;;;;13.77;100.00;101543.16;5092089;28;20036;-76
2023/09/02 03:03:09;;;;;;;55.90;20.08;;;;;;;13.76;100.00;101547.75;5091366;28;20031;-77
2023/09/02 03:05:38;;;;;;;53.63;19.25;;;;;;;13.80;100.00;101553.59;5093505;28;20032;-77
2023/09/02 03:08:05;;;;;;;51.55;18.77;;;;;;;13.80;100.00;101550.88;5090492;28;20114;-77
2023/09/02 03:10:32;;;;;;;56.67;19.63;;;;;;;13.80;100.00;101548.19;5085135;28;20046;-77
2023/09/02 03:13:03;;;;;;;51.35;18.95;;;;;;;13.80;100.00;101543.59;5080794;28;20574;-77
2023/09/02 03:15:28;;;;;;;64.53;20.48;;;;;;;13.82;100.00;101550.66;5089998;28;20452;-77
2023/09/02 03:17:53;;;;;;;52.42;19.05;;;;;;;13.82;100.00;101550.66;5088783;28;20028;-77
2023/09/02 03:20:20;;;;;;;57.60;19.77;;;;;;;13.80;100.00;101538.19;5093234;28;20028;-77
2023/09/02 03:22:45;;;;;;;58.33;20.10;;;;;;;13.78;100.00;101536.72;5093255;28;20028;-77
2023/09/02 03:25:11;;;;;;;58.75;21.20;;;;;;;13.80;100.00;101538.19;5093220;28;20039;-77
2023/09/02 03:27:39;;;;;;;55.78;19.75;;;;;;;13.82;100.00;101539.84;5092259;28;20024;-77
2023/09/02 03:30:05;;;;;;;53.03;18.90;;;;;;;13.77;100.00;101541.28;5065660;22;20513;-76
2023/09/02 03:32:31;;;;;;;52.05;19.65;;;;;;;13.69;100.00;101538.75;5052054;28;20033;-75
2023/09/02 03:34:56;;;;;;;56.83;19.17;;;;;;;13.64;100.00;101543.94;5050289;28;20017;-76
2023/09/02 03:37:22;;;;;;;53.70;19.20;;;;;;;13.64;100.00;101544.78;5047496;28;20044;-75
2023/09/02 03:39:47;;;;;;;56.25;19.98;;;;;;;13.66;100.00;101544.56;5053245;28;20615;-75
2023/09/02 03:42:12;;;;;;;56.42;18.92;;;;;;;13.66;100.00;101538.34;5050577;28;20062;-78
2023/09/02 03:44:38;;;;;;;51.83;18.30;;;;;;;13.62;100.00;101540.59;5050097;28;20167;-75
2023/09/02 03:47:03;;;;;;;50.65;18.58;;;;;;;13.57;100.00;101546.59;5056044;28;20032;-75
2023/09/02 03:49:29;;;;;;;57.03;19.33;;;;;;;13.60;100.00;101553.47;5060897;28;20052;-75
2023/09/02 03:51:54;;;;;;;56.13;18.85;;;;;;;13.61;100.00;101561.41;5056805;28;20029;-75
2023/09/02 03:54:20;;;;;;;55.38;18.45;;;;;;;13.62;100.00;101556.81;5061688;28;20016;-77
2023/09/02 03:56:56;;;;;;;53.85;18.98;;;;;;;13.59;100.00;101568.88;5247051;22;20007;-77
2023/09/02 03:59:21;;;;;;;54.83;18.35;;;;;;;13.53;100.00;101568.84;5102937;28;20402;-77
2023/09/02 04:01:47;;;;;;;44.08;17.73;;;;;;;13.45;100.00;101564.44;5093856;28;20020;-77
2023/09/02 04:04:12;;;;;;;54.63;19.17;;;;;;;13.36;100.00;101563.72;5091731;28;20024;-77
2023/09/02 04:06:38;;;;;;;53.75;18.92;;;;;;;13.31;100.00;101560.78;5081336;28;20035;-77
2023/09/02 04:09:05;;;;;;;57.70;18.73;;;;;;;13.29;100.00;101563.69;5092698;28;20097;-77
2023/09/02 04:11:31;;;;;;;55.08;19.05;;;;;;;13.24;100.00;101570.72;5093651;28;20020;-77
2023/09/02 04:13:56;;;;;;;54.53;17.83;;;;;;;13.18;100.00;101570.47;5092702;28;20032;-77
2023/09/02 04:16:22;;;;;;;60.65;19.52;;;;;;;13.12;100.00;101579.34;5080748;28;20128;-77
2023/09/02 04:18:47;;;;;;;49.28;18.00;;;;;;;13.10;100.00;101570.59;5091433;28;20480;-77
2023/09/02 04:21:13;;;;;;;57.90;19.05;;;;;;;13.08;100.00;101572.66;5092688;28;20084;-77
2023/09/02 04:23:39;;;;;;;51.85;18.30;;;;;;;13.04;100.00;101571.41;5092704;28;20016;-77
2023/09/02 04:26:05;;;;;;;51.28;17.30;;;;;;;13.00;100.00;101570.13;5093769;28;20036;-77
2023/09/02 04:28:30;;;;;;;58.08;19.23;;;;;;;12.94;100.00;101574.44;5089227;28;20095;-77
2023/09/02 04:30:56;;;;;;;55.97;18.98;;;;;;;12.91;100.00;101571.28;5089942;28;20479;-77
2023/09/02 04:33:22;;;;;;;55.63;18.10;;;;;;;12.87;100.00;101573.53;5085048;28;20895;-77
2023/09/02 04:35:47;;;;;;;59.20;19.48;;;;;;;12.90;100.00;101575.84;5090437;28;20024;-76
2023/09/02 04:38:12;;;;;;;61.17;19.13;;;;;;;12.89;100.00;101585.81;5089464;28;20066;-77
2023/09/02 04:40:41;;;;;;;53.45;17.45;;;;;;;12.85;100.00;101581.84;5089309;28;20030;-77
2023/09/02 04:43:08;;;;;;;53.95;17.58;;;;;;;12.84;100.00;101593.69;5090743;28;20024;-77
2023/09/02 04:45:34;;;;;;;58.13;18.23;;;;;;;12.83;100.00;101586.59;5088559;28;20081;-77
2023/09/02 04:48:00;;;;;;;58.67;18.40;;;;;;;12.84;100.00;101590.13;5081903;28;20036;-77
2023/09/02 04:50:26;;;;;;;52.45;17.35;;;;;;;12.83;100.00;101592.00;5082363;28;20028;-77
2023/09/02 04:52:52;;;;;;;52.13;17.77;;;;;;;12.81;100.00;101588.66;5098911;28;20083;-77
2023/09/02 04:55:19;;;;;;;52.03;17.45;;;;;;;12.77;100.00;101591.94;5096300;28;20023;-77
2023/09/02 04:57:45;;;;;;;59.08;18.30;;;;;;;12.76;100.00;101606.50;5098636;28;20040;-77
2023/09/02 05:00:12;;;;;;;55.03;18.10;;;;;;;12.76;100.00;101603.78;5089755;28;20035;-77
2023/09/02 05:02:37;;;;;;;55.80;17.75;;;;;;;12.82;100.00;101603.84;5091496;28;20044;-77
2023/09/02 05:05:03;;;;;;;60.38;18.90;;;;;;;12.94;100.00;101603.31;5088938;28;20032;-76
2023/09/02 05:07:31;;;;;;;70.72;20.35;;;;;;;13.06;100.00;101612.56;5088884;28;20119;-77
2023/09/02 05:09:56;;;;;;;65.60;19.67;;;;;;;13.18;100.00;101618.28;5089648;28;20495;-77
2023/09/02 05:12:22;;;;;;;66.65;20.63;;;;;;;13.26;100.00;101626.25;5088871;28;20035;-77
2023/09/02 05:14:47;;;;;;;61.17;19.30;;;;;;;13.33;100.00;101623.59;5088962;28;20080;-77
2023/09/02 05:17:13;;;;;;;59.33;18.75;;;;;;;13.44;100.00;101622.25;5091754;28;20028;-77
2023/09/02 05:22:13;;;;;;;55.38;18.92;;;;;;;13.53;100.00;101628.38;5149354;22;20048;-77
2023/09/02 05:24:51;;;;;;;61.10;19.50;;;;;;;13.60;100.00;101637.34;5050480;28;20021;-77
2023/09/02 05:27:19;;;;;;;61.72;19.25;;;;;;;13.65;100.00;101643.00;5032841;28;20017;-75
2023/09/02 05:29:45;;;;;;;59.25;20.27;;;;;;;13.71;100.00;101639.50;5043675;28;20028;-75
2023/09/02 05:32:12;;;;;;;55.88;19.08;;;;;;;13.82;100.00;101637.28;5049452;28;20423;-75
2023/09/02 05:34:37;;;;;;;54.10;19.30;;;;;;;13.85;100.00;101645.84;5050274;28;20021;-75
2023/09/02 05:37:03;;;;;;;57.97;20.25;;;;;;;13.94;100.00;101641.13;5050100;28;20051;-76
2023/09/02 05:39:28;;;;;;;52.42;19.65;;;;;;;13.98;100.00;101636.94;5049268;28;20124;-75
2023/09/02 05:41:54;;;;;;;52.55;19.00;;;;;;;14.10;100.00;101637.22;5046052;28;20033;-75
2023/09/02 05:44:19;;;;;;;46.17;18.92;;;;;;;14.16;100.00;101638.28;5047526;28;20041;-76
2023/09/02 05:46:44;;;;;;;40.67;18.08;;;;;;;14.22;100.00;101651.84;5045300;28;20117;-76
2023/09/02 05:49:10;;;;;;;42.40;18.45;;;;;;;14.27;100.00;101645.84;5044783;28;20410;-76
2023/09/02 05:51:36;;;;;;;41.80;17.83;;;;;;;14.29;100.00;101643.78;5045447;28;20046;-76
2023/09/02 05:54:02;;;;;;;45.55;17.85;;;;;;;14.36;100.00;101658.16;5056309;28;20025;-77
2023/09/02 05:56:28;;;;;;;40.08;17.33;;;;;;;14.49;100.00;101653.81;5045576;28;20183;-77
2023/09/02 05:58:53;;;;;;;38.50;17.58;;;;;;;14.49;100.00;101656.53;5048381;28;20028;-77
2023/09/02 06:01:19;;;;;;;40.53;17.08;;;;;;;14.49;100.00;101653.81;5046238;28;20444;-77
2023/09/02 06:03:44;;;;;;;36.70;17.33;;;;;;;14.56;100.00;101657.41;5053324;28;20098;-78
2023/09/02 06:06:12;;;;;;;34.78;16.38;;;;;;;14.64;100.00;101657.22;5053473;28;20056;-78
2023/09/02 06:08:38;;;;;;;33.55;16.77;;;;;;;14.70;100.00;101666.44;5049837;28;20056;-78
2023/09/02 06:11:07;;;;;;;31.95;16.80;;;;;;;14.74;100.00;101666.84;5052499;28;20183;-78
2023/09/02 06:13:32;;;;;;;32.97;15.63;;;;;;;14.75;100.00;101663.09;5050786;28;20041;-79
2023/09/02 06:15:59;;;;;;;32.70;16.42;;;;;;;14.79;100.00;101665.19;5031826;28;20082;-75
2023/09/02 06:18:24;;;;;;;30.63;16.02;;;;;;;14.86;100.00;101673.34;5047353;28;20025;-73
2023/09/02 06:20:50;;;;;;;29.08;16.05;;;;;;;14.93;100.00;101671.50;5038901;28;20048;-82
2023/09/02 06:23:15;;;;;;;30.02;15.48;;;;;;;14.94;100.00;101669.59;5040156;28;20511;-78
2023/09/02 06:25:41;;;;;;;29.38;15.88;;;;;;;14.99;100.00;101670.69;5050774;28;20112;-79
2023/09/02 06:28:06;;;;;;;28.52;15.95;;;;;;;15.03;100.00;101665.66;5048570;28;20032;-76
2023/09/02 06:30:32;;;;;;;30.92;16.48;;;;;;;15.08;100.00;101671.31;5041744;28;20040;-76
2023/09/02 06:32:57;;;;;;;27.42;15.35;;;;;;;15.13;100.00;101667.97;5049227;28;20028;-76
2023/09/02 06:35:24;;;;;;;27.10;15.68;;;;;;;15.21;100.00;101666.94;5054141;28;20033;-76
2023/09/02 06:37:49;;;;;;;26.45;15.27;;;;;;;15.30;100.00;101662.97;5050065;28;20726;-76
2023/09/02 06:40:17;;;;;;;25.02;14.77;;;;;;;15.41;100.00;101675.06;5046151;28;20032;-76
2023/09/02 06:42:43;;;;;;;23.10;14.43;;;;;;;15.53;100.00;101669.84;5042165;28;20097;-75
2023/09/02 06:45:13;;;;;;;24.23;14.25;;;;;;;15.64;100.00;101671.09;5040336;28;20178;-81
2023/09/02 06:47:38;;;;;;;21.25;13.63;;;;;;;15.65;100.00;101686.34;5039874;28;20692;-80
2023/09/02 06:50:04;;;;;;;23.15;14.98;;;;;;;15.73;100.00;101688.81;5047132;28;20024;-78
2023/09/02 06:52:30;;;;;;;20.65;14.10;;;;;;;15.91;100.00;101699.88;5047537;28;20052;-75
2023/09/02 06:54:59;;;;;;;19.33;13.38;;;;;;;16.14;100.00;101704.00;5046796;28;20738;-75
2023/09/02 06:57:25;;;;;;;21.30;13.35;;;;;;;16.26;100.00;101714.22;5049114;28;20113;-74
2023/09/02 06:59:51;;;;;;;23.70;13.68;;;;;;;16.26;100.00;101719.66;5062170;22;20047;-75
2023/09/02 07:02:18;;;;;;;22.20;14.75;;;;;;;16.32;100.00;101716.94;5075438;28;20358;-75
2023/09/02 07:04:47;;;;;;;23.70;13.57;;;;;;;16.41;100.00;101714.81;5075632;28;20580;-75
2023/09/02 07:07:13;;;;;;;26.05;15.02;;;;;;;16.48;100.00;101720.22;5078481;28;20040;-75
2023/09/02 07:09:38;;;;;;;28.17;16.48;;;;;;;16.47;100.00;101721.25;5079083;28;20358;-75
2023/09/02 07:12:04;;;;;;;28.42;17.13;;;;;;;16.32;100.00;101726.94;5081394;28;20474;-75
2023/09/02 07:14:29;;;;;;;30.83;16.77;;;;;;;16.44;100.00;101736.09;5084473;28;20042;-75
2023/09/02 07:16:58;;;;;;;26.50;15.68;;;;;;;16.40;100.00;101732.16;5072853;28;20511;-75
2023/09/02 07:19:24;;;;;;;24.73;15.77;;;;;;;16.46;100.00;101744.88;5071416;28;20029;-76
2023/09/02 07:21:49;;;;;;;26.98;17.00;;;;;;;16.59;100.00;101752.16;5071910;28;20029;-79
2023/09/02 07:24:18;;;;;;;28.58;17.35;;;;;;;16.64;100.00;101760.50;5073208;28;20033;-81
2023/09/02 07:26:43;;;;;;;26.15;16.08;;;;;;;16.66;100.00;101763.00;5082803;28;20032;-85
2023/09/02 07:29:11;;;;;;;24.20;16.63;;;;;;;16.74;100.00;101761.91;5085753;28;20044;-80
2023/09/02 07:31:38;;;;;;;26.60;16.80;;;;;;;16.67;100.00;101764.66;5072989;28;20020;-78
2023/09/02 07:34:04;;;;;;;24.48;16.92;;;;;;;16.72;100.00;101764.00;5053447;28;20025;-77
2023/09/02 07:36:29;;;;;;;23.90;17.20;;;;;;;16.77;100.00;101764.22;5071259;28;20059;-75
2023/09/02 07:38:55;;;;;;;25.50;17.58;;;;;;;16.73;100.00;101766.53;5072984;28;20036;-75
2023/09/02 07:41:20;;;;;;;24.85;18.27;;;;;;;16.81;100.00;101782.59;5072509;28;20077;-77
2023/09/02 07:43:45;;;;;;;21.63;17.02;;;;;;;16.98;100.00;101790.28;5071024;28;20544;-76
2023/09/02 07:46:11;;;;;;;25.85;18.10;;;;;;;17.01;100.00;101784.41;5071430;28;20472;-78
2023/09/02 07:48:36;;;;;;;27.10;18.38;;;;;;;17.04;100.00;101792.13;5070530;28;20056;-76
2023/09/02 07:51:02;;;;;;;23.27;17.15;;;;;;;17.01;100.00;101794.47;5073003;28;20488;-75
2023/09/02 07:53:28;;;;;;;27.70;18.45;;;;;;;17.00;100.00;101793.63;5072327;28;20372;-76
2023/09/02 07:55:53;;;;;;;27.55;18.58;;;;;;;16.96;100.00;101801.38;5084928;28;20044;-76
2023/09/02 07:58:19;;;;;;;26.08;18.30;;;;;;;16.90;100.00;101804.09;5086684;28;20078;-76
2023/09/02 08:00:44;;;;;;;23.90;17.63;;;;;;;16.85;100.00;101806.63;5073888;28;20052;-76
2023/09/02 08:03:12;;;;;;;25.17;18.02;;;;;;;16.78;100.00;101812.91;5076543;22;20108;-76
2023/09/02 08:05:41;;;;;;;26.25;18.75;;;;;;;16.64;100.00;101814.03;5090967;28;20020;-76
2023/09/02 08:08:06;;;;;;;26.42;17.95;;;;;;;16.69;100.00;101819.66;5088588;28;20392;-75
2023/09/02 08:10:33;;;;;;;25.73;18.05;;;;;;;16.79;100.00;101821.94;5090635;28;20035;-76
2023/09/02 08:12:59;;;;;;;24.05;17.52;;;;;;;16.74;100.00;101832.59;5089289;28;20031;-76
2023/09/02 08:15:24;;;;;;;24.80;18.58;;;;;;;16.78;100.00;101836.56;5090568;28;20032;-76
2023/09/02 08:17:50;;;;;;;23.92;18.73;;;;;;;16.67;100.00;101833.47;5087345;28;20153;-76
2023/09/02 08:20:15;;;;;;;25.10;18.30;;;;;;;16.77;100.00;101838.44;5086298;28;20077;-76
2023/09/02 08:22:42;;;;;;;28.23;19.40;;;;;;;16.86;100.00;101851.81;5100059;28;20249;-76
2023/09/02 08:25:08;;;;;;;25.75;18.92;;;;;;;16.82;100.00;101852.25;5089466;28;20058;-77
2023/09/02 08:27:34;;;;;;;24.73;18.73;;;;;;;16.87;100.00;101853.50;5086743;28;20027;-76
2023/09/02 08:29:59;;;;;;;24.90;18.98;;;;;;;16.78;100.00;101848.28;5074557;28;20024;-76
2023/09/02 08:32:25;;;;;;;25.55;18.88;;;;;;;16.66;100.00;101852.72;5066272;28;20046;-76
2023/09/02 08:34:53;;;;;;;25.55;19.33;;;;;;;16.73;100.00;101863.56;5095459;28;20498;-76
2023/09/02 08:37:19;;;;;;;24.88;18.35;;;;;;;16.83;100.00;101862.06;5077116;28;20107;-76
2023/09/02 08:39:44;;;;;;;28.00;18.98;;;;;;;16.81;100.00;101860.63;5091815;28;20075;-76
2023/09/02 08:42:10;;;;;;;23.70;18.08;;;;;;;16.86;100.00;101868.97;5091338;28;20016;-76
2023/09/02 08:44:35;;;;;;;24.95;18.65;;;;;;;16.97;100.00;101862.91;5061572;28;20328;-76
2023/09/02 08:47:01;;;;;;;22.13;17.83;;;;;;;17.01;100.00;101865.19;5088078;28;20024;-76
2023/09/02 08:49:27;;;;;;;26.70;19.65;;;;;;;16.99;100.00;101867.28;5079969;28;20044;-76
2023/09/02 08:51:52;;;;;;;27.80;19.90;;;;;;;17.05;100.00;101861.81;5081920;28;20028;-77
2023/09/02 08:54:18;;;;;;;24.90;18.58;;;;;;;17.21;100.00;101857.75;5077377;28;20020;-75
2023/09/02 08:56:44;;;;;;;27.60;19.38;;;;;;;17.24;100.00;101853.78;5088769;28;20472;-76
2023/09/02 08:59:09;;;;;;;25.15;18.52;;;;;;;17.31;100.00;101843.69;5061246;28;20033;-76
2023/09/02 09:01:43;;;;;;;24.65;18.23;;;;;;;17.43;100.00;101841.97;5076612;28;20027;-75
2023/09/02 09:04:08;;;;;;;22.98;18.45;;;;;;;17.57;100.00;101841.88;5089844;28;20512;-76
2023/09/02 09:06:34;;;;;;;24.42;18.52;;;;;;;17.55;100.00;101836.66;5067860;28;20029;-76
2023/09/02 09:08:59;;;;;;;25.20;18.40;;;;;;;17.57;100.00;101839.16;5069279;28;20036;-75
2023/09/02 09:11:25;;;;;;;25.05;18.20;;;;;;;17.37;100.00;101831.94;5073429;28;20028;-75
2023/09/02 09:13:51;;;;;;;26.42;19.85;;;;;;;17.48;100.00;101837.72;5077905;28;20372;-76
2023/09/02 09:16:20;;;;;;;23.17;18.88;;;;;;;17.56;100.00;101843.75;5075402;28;20051;-76
2023/09/02 09:18:45;;;;;;;25.13;19.15;;;;;;;17.68;100.00;101851.22;5073677;28;20028;-76
2023/09/02 09:21:11;;;;;;;22.83;16.77;;;;;;;17.79;100.00;101857.84;5087582;28;20349;-76
2023/09/02 09:23:36;;;;;;;19.73;15.88;;;;;;;17.90;100.00;101859.84;5093356;28;20028;-76
2023/09/02 09:26:04;;;;;;;24.35;17.98;;;;;;;17.75;100.00;101860.16;5074987;28;20108;-76
2023/09/02 09:28:51;;;;;;;23.95;18.08;;;;;;;17.51;100.00;101865.38;5063188;28;20027;-75
2023/09/02 09:31:17;;;;;;;24.40;18.15;;;;;;;17.58;100.00;101870.75;5082037;28;20039;-76
2023/09/02 09:33:49;;;;;;;23.73;19.13;;;;;;;17.60;100.00;101868.66;5072812;28;20043;-75
2023/09/02 09:36:14;;;;;;;23.55;18.20;;;;;;;17.77;100.00;101870.84;5089366;28;20032;-75
2023/09/02 09:38:40;;;;;;;25.40;18.17;;;;;;;17.86;100.00;101884.00;5087397;28;20388;-76
2023/09/02 09:41:08;;;;;;;22.00;17.92;;;;;;;17.92;100.00;101887.72;5089519;28;20020;-76
2023/09/02 09:43:33;;;;;;;21.63;17.10;;;;;;;18.14;100.00;101890.91;5084482;28;20073;-75
2023/09/02 09:45:59;;;;;;;22.67;17.73;;;;;;;18.23;100.00;101891.47;5080110;28;20031;-76
2023/09/02 09:48:25;;;;;;;24.15;17.77;;;;;;;18.36;100.00;101897.84;5086734;28;20028;-76
2023/09/02 09:50:51;;;;;;;23.70;17.83;;;;;;;18.59;100.00;101895.34;5087270;28;20329;-75
2023/09/02 09:53:16;;;;;;;22.55;16.88;;;;;;;18.90;98.48;101900.88;5090430;28;20042;-76
2023/09/02 09:55:42;;;;;;;24.40;18.05;;;;;;;19.13;95.72;101899.41;5085429;28;20110;-76
2023/09/02 09:58:07;;;;;;;23.17;17.65;;;;;;;19.23;93.42;101902.41;5068121;28;20028;-76
2023/09/02 10:00:33;;;;;;;21.92;17.63;;;;;;;19.31;93.05;101899.38;5073182;28;20080;-76
2023/09/02 10:02:59;;;;;;;22.70;17.65;;;;;;;19.39;92.60;101907.25;5072107;28;20032;-76
2023/09/02 10:05:28;;;;;;;20.50;16.48;;;;;;;19.64;91.44;101911.75;5088117;28;20043;-75
2023/09/02 10:08:06;;;;;;;22.63;17.52;;;;;;;19.97;88.53;101917.78;5087239;28;20028;-76
2023/09/02 10:10:36;;;;;;;22.83;17.50;;;;;;;20.14;86.61;101913.31;5087669;28;20416;-75
2023/09/02 10:13:01;;;;;;;19.35;16.63;;;;;;;20.13;87.25;101919.84;5088027;28;20197;-76
2023/09/02 10:15:27;;;;;;;22.88;18.00;;;;;;;19.99;85.50;101921.13;5079894;28;20030;-75
2023/09/02 10:18:00;;;;;;;21.13;16.85;;;;;;;20.15;86.57;101925.91;5074510;28;20094;-76
2023/09/02 10:20:30;;;;;;;24.77;17.27;;;;;;;20.20;85.80;101932.56;5091929;28;20036;-75
2023/09/02 10:23:06;;;;;;;21.00;17.95;;;;;;;20.29;85.63;101936.66;5075080;28;20066;-75
2023/09/02 10:26:05;;;;;;;22.35;18.05;;;;;;;20.32;84.50;101944.34;5088506;28;20031;-76
2023/09/02 10:28:40;;;;;;;23.92;17.23;;;;;;;20.09;85.08;101937.81;5081519;28;20032;-75
2023/09/02 10:31:22;;;;;;;22.02;17.83;;;;;;;19.81;87.08;101939.22;5069056;28;20091;-75
2023/09/02 10:34:09;;;;;;;20.17;17.27;;;;;;;19.84;85.54;101941.50;5085811;28;20388;-76
2023/09/02 10:36:37;;;;;;;23.30;17.60;;;;;;;20.21;85.19;101945.19;5077649;28;20535;-76
2023/09/02 10:39:03;;;;;;;23.48;17.83;;;;;;;20.24;84.18;101944.72;5067201;28;20035;-76
2023/09/02 10:41:29;;;;;;;21.88;17.52;;;;;;;20.39;84.19;101947.81;5070757;28;20016;-76
2023/09/02 10:43:55;;;;;;;21.52;17.08;;;;;;;20.74;82.58;101955.22;5085922;28;20028;-75
2023/09/02 10:46:20;;;;;;;20.38;16.50;;;;;;;20.89;80.40;101956.66;5070638;28;20042;-75
2023/09/02 10:48:46;;;;;;;23.02;18.25;;;;;;;20.82;80.53;101955.97;5091221;28;20040;-76
2023/09/02 10:51:12;;;;;;;26.23;19.60;;;;;;;20.87;80.47;101964.25;5071733;28;20472;-76
2023/09/02 10:54:00;;;;;;;28.85;21.30;;;;;;;20.64;81.21;101948.66;5072580;28;20073;-76
2023/09/02 10:56:27;;;;;;;27.33;21.05;;;;;;;20.65;80.56;101948.41;5083731;28;20043;-76
2023/09/02 10:58:53;;;;;;;30.45;21.88;;;;;;;20.43;82.99;101959.13;5090338;28;20035;-77
2023/09/02 11:01:20;;;;;;;28.30;20.02;;;;;;;20.72;83.09;101957.34;5089519;28;20503;-76
2023/09/02 11:03:49;;;;;;;26.63;20.35;;;;;;;20.83;82.24;101968.53;5071073;28;20113;-76